Hrossey — VSTY6 — position and weather

sailwx.info

Track history (hours):
 
Tides and Currents Weather Stations Pressure Air Temp Water Temp Dewpoint Dewpoint Depression Visibility Wind Speed Wind Dir Waves Ship Positions

Hrossey

Operator: NorthLink Orkey & Shetland Ferries Ltd

Last reported at 2020-Jul-14 14:00 UTC. Time now 2020-Jul-14 14:19 UTC.
Position N 57°09' W 002°05'.

Length 125 m; draft 5.4 m.

Type: Ship. MMSI: 235448000.

Date/timePositionNaut miles runAvg speedWind from/ knotsBaromVisibWave heightAir tempDewpointWater temp
2020-Jul-14 14:00N 57°09' W 002°05'0 0.0
2020-Jul-14 13:30N 57°09' W 002°05'0 0.0
2020-Jul-14 07:00N 57°09' W 002°05'0 0.0
2020-Jul-14 06:30N 57°09' W 002°05'6 4.3
2020-Jul-14 05:00N 57°13' W 001°57'2516.5
2020-Jul-14 03:31N 57°37' W 001°43'7021.2
2020-Jul-14 00:11N 58°43' W 002°27'23 0.9
2020-Jul-12 22:29N 58°60' W 002°58'0 0.0
2020-Jul-12 21:58N 58°60' W 002°58'7619.6
2020-Jul-12 18:06N 57°53' W 001°52'4512.3
2020-Jul-12 14:29N 57°09' W 002°05'0 0.0
2020-Jul-12 13:29N 57°09' W 002°05'0 0.0
2020-Jul-12 12:29N 57°09' W 002°05'0 0.0
2020-Jul-12 10:59N 57°09' W 002°05'0 0.0
2020-Jul-12 07:29N 57°09' W 002°05'7 2.8
2020-Jul-12 05:00N 57°13' W 001°56'20 0.6
2020-Jul-10 19:31N 57°31' W 001°37'917.9
2020-Jul-10 19:00N 57°23' W 001°45'18 5.9
2020-Jul-10 15:58N 57°09' W 002°05'0 0.0
2020-Jul-10 14:58N 57°09' W 002°05'0 0.0
2020-Jul-10 13:28N 57°09' W 002°05'0 0.0
2020-Jul-10 11:58N 57°09' W 002°05'0 0.0
2020-Jul-10 10:58N 57°09' W 002°05'0 0.0
2020-Jul-10 08:28N 57°09' W 002°05'0 0.0
2020-Jul-10 06:28N 57°09' W 002°05'0 0.0
2020-Jul-10 05:58N 57°09' W 002°05'1 1.2
2020-Jul-10 05:31N 57°09' W 002°05'44 1.3
2020-Jul-08 20:14N 57°50' W 001°38'4416.0
2020-Jul-08 17:30N 57°09' W 002°05'0 0.0
2020-Jul-08 17:01N 57°09' W 002°05'0 0.0
2020-Jul-08 15:30N 57°09' W 002°05'0 0.0
2020-Jul-08 14:00N 57°09' W 002°05'0 0.0
2020-Jul-08 13:30N 57°09' W 002°05'0 0.0
2020-Jul-08 13:00N 57°09' W 002°05'0 0.0
2020-Jul-08 12:30N 57°09' W 002°05'0 0.0
2020-Jul-08 11:00N 57°09' W 002°05'1 0.1
2020-Jul-08 05:30N 57°09' W 002°04'3112.5
2020-Jul-08 03:00N 57°36' W 001°37'11 0.4
2020-Jul-06 19:00N 57°25' W 001°41'918.7
2020-Jul-06 18:30N 57°17' W 001°50'1211.6
2020-Jul-06 17:30N 57°09' W 002°05'0 0.0
2020-Jul-06 16:58N 57°09' W 002°05'0 0.0
2020-Jul-06 11:58N 57°09' W 002°05'0 0.0
2020-Jul-06 10:59N 57°09' W 002°05'0 0.0
2020-Jul-06 09:59N 57°09' W 002°05'0 0.0
2020-Jul-06 09:29N 57°09' W 002°05'0 0.0
2020-Jul-06 08:29N 57°09' W 002°05'0 0.0
2020-Jul-06 07:59N 57°09' W 002°05'13 3.7
2020-Jul-06 04:30N 57°18' W 001°49'1711.7
2020-Jul-06 03:00N 57°34' W 001°37'714.1
2020-Jul-06 02:30N 57°41' W 001°34'90 3.2
2020-Jul-04 22:24N 58°60' W 002°58'4013.7
2020-Jul-04 19:29N 58°27' W 002°15'  
Track history (hours):
 
Tides and Currents Weather Stations Pressure Air Temp Water Temp Dewpoint Dewpoint Depression Visibility Wind Speed Wind Dir Waves Ship Positions

Hrossey

Operator: NorthLink Orkey & Shetland Ferries Ltd

Last reported at 2020-Jul-14 14:00 UTC. Time now 2020-Jul-14 14:19 UTC.
Position N 57°09' W 002°05'.

Length 125 m; draft 5.4 m.

Type: Ship. MMSI: 235448000.

Date/timePositionNaut miles runAvg speedWind from/ knotsBaromVisibWave heightAir tempDewpointWater temp
2020-Jul-14 14:00N 57°09' W 002°05'0 0.0
2020-Jul-14 13:30N 57°09' W 002°05'0 0.0
2020-Jul-14 07:00N 57°09' W 002°05'0 0.0
2020-Jul-14 06:30N 57°09' W 002°05'6 4.3
2020-Jul-14 05:00N 57°13' W 001°57'2516.5
2020-Jul-14 03:31N 57°37' W 001°43'7021.2
2020-Jul-14 00:11N 58°43' W 002°27'23 0.9
2020-Jul-12 22:29N 58°60' W 002°58'0 0.0
2020-Jul-12 21:58N 58°60' W 002°58'7619.6
2020-Jul-12 18:06N 57°53' W 001°52'4512.3
2020-Jul-12 14:29N 57°09' W 002°05'0 0.0
2020-Jul-12 13:29N 57°09' W 002°05'0 0.0
2020-Jul-12 12:29N 57°09' W 002°05'0 0.0
2020-Jul-12 10:59N 57°09' W 002°05'0 0.0
2020-Jul-12 07:29N 57°09' W 002°05'7 2.8
2020-Jul-12 05:00N 57°13' W 001°56'20 0.6
2020-Jul-10 19:31N 57°31' W 001°37'917.9
2020-Jul-10 19:00N 57°23' W 001°45'18 5.9
2020-Jul-10 15:58N 57°09' W 002°05'0 0.0
2020-Jul-10 14:58N 57°09' W 002°05'0 0.0
2020-Jul-10 13:28N 57°09' W 002°05'0 0.0
2020-Jul-10 11:58N 57°09' W 002°05'0 0.0
2020-Jul-10 10:58N 57°09' W 002°05'0 0.0
2020-Jul-10 08:28N 57°09' W 002°05'0 0.0
2020-Jul-10 06:28N 57°09' W 002°05'0 0.0
2020-Jul-10 05:58N 57°09' W 002°05'1 1.2
2020-Jul-10 05:31N 57°09' W 002°05'44 1.3
2020-Jul-08 20:14N 57°50' W 001°38'4416.0
2020-Jul-08 17:30N 57°09' W 002°05'0 0.0
2020-Jul-08 17:01N 57°09' W 002°05'0 0.0
2020-Jul-08 15:30N 57°09' W 002°05'0 0.0
2020-Jul-08 14:00N 57°09' W 002°05'0 0.0
2020-Jul-08 13:30N 57°09' W 002°05'0 0.0
2020-Jul-08 13:00N 57°09' W 002°05'0 0.0
2020-Jul-08 12:30N 57°09' W 002°05'0 0.0
2020-Jul-08 11:00N 57°09' W 002°05'1 0.1
2020-Jul-08 05:30N 57°09' W 002°04'3112.5
2020-Jul-08 03:00N 57°36' W 001°37'11 0.4
2020-Jul-06 19:00N 57°25' W 001°41'918.7
2020-Jul-06 18:30N 57°17' W 001°50'1211.6
2020-Jul-06 17:30N 57°09' W 002°05'0 0.0
2020-Jul-06 16:58N 57°09' W 002°05'0 0.0
2020-Jul-06 11:58N 57°09' W 002°05'0 0.0
2020-Jul-06 10:59N 57°09' W 002°05'0 0.0
2020-Jul-06 09:59N 57°09' W 002°05'0 0.0
2020-Jul-06 09:29N 57°09' W 002°05'0 0.0
2020-Jul-06 08:29N 57°09' W 002°05'0 0.0
2020-Jul-06 07:59N 57°09' W 002°05'13 3.7
2020-Jul-06 04:30N 57°18' W 001°49'1711.7
2020-Jul-06 03:00N 57°34' W 001°37'714.1
2020-Jul-06 02:30N 57°41' W 001°34'90 3.2
2020-Jul-04 22:24N 58°60' W 002°58'4013.7
2020-Jul-04 19:29N 58°27' W 002°15'  

Dump ship's entire track history